createdAt,value
2023-01-15T00:01:03.406Z,100138.38
2023-01-15T00:03:05.345Z,100140.19
2023-01-15T00:05:08.002Z,100137.53
2023-01-15T00:07:10.193Z,100141.13
2023-01-15T00:09:16.782Z,100133.97
2023-01-15T00:11:19.662Z,100144.59
2023-01-15T00:13:21.809Z,100133.13
2023-01-15T00:15:24.121Z,100134.91
2023-01-15T00:17:26.423Z,100132.22
2023-01-15T00:19:28.581Z,100132.22
2023-01-15T00:21:31.323Z,100135.88
2023-01-15T00:23:55.642Z,100132.16
2023-01-15T00:26:16.722Z,100135.06
2023-01-15T00:28:18.925Z,100132.41
2023-01-15T00:30:21.612Z,100131.53
2023-01-15T00:32:24.291Z,100135.13
2023-01-15T00:34:27.589Z,100125.25
2023-01-15T00:36:29.873Z,100126.19
2023-01-15T00:38:31.955Z,100129.81
2023-01-15T00:40:34.142Z,100134.22
2023-01-15T00:42:41.286Z,100131.53
2023-01-15T00:44:44.410Z,100132.44
2023-01-15T00:46:46.710Z,100126.25
2023-01-15T00:48:49.828Z,100129.81
2023-01-15T00:50:51.971Z,100127.03
2023-01-15T00:52:54.227Z,100127.97
2023-01-15T00:54:56.232Z,100128.03
2023-01-15T00:56:58.484Z,100116.41
2023-01-15T00:59:04.080Z,100121.84
2023-01-15T01:01:07.133Z,100116.41
2023-01-15T01:03:09.572Z,100118.13
2023-01-15T01:05:14.367Z,100105.59
2023-01-15T01:07:18.593Z,100103.81
2023-01-15T01:09:20.698Z,100101.97
2023-01-15T01:11:26.992Z,100102.00
2023-01-15T01:13:29.195Z,100093.94
2023-01-15T01:15:34.093Z,100098.31
2023-01-15T01:17:39.037Z,100100.16
2023-01-15T01:19:43.641Z,100094.84
2023-01-15T01:21:46.986Z,100094.09
2023-01-15T01:23:49.566Z,100091.38
2023-01-15T01:25:52.009Z,100082.63
2023-01-15T01:27:58.161Z,100089.72
2023-01-15T01:30:02.016Z,100079.94
2023-01-15T01:32:04.561Z,100081.72
2023-01-15T01:34:06.872Z,100076.38
2023-01-15T01:36:09.299Z,100067.56
2023-01-15T01:38:11.402Z,100069.28
2023-01-15T01:40:14.684Z,100059.53
2023-01-15T01:42:18.034Z,100061.31
2023-01-15T01:44:33.126Z,100062.34
2023-01-15T01:46:36.811Z,100056.97
2023-01-15T01:48:38.937Z,100053.38
2023-01-15T01:50:42.539Z,100052.50
2023-01-15T01:52:51.885Z,100051.66
2023-01-15T01:54:54.693Z,100043.59
2023-01-15T01:56:57.357Z,100048.16
2023-01-15T01:58:59.803Z,100048.03
2023-01-15T02:01:02.531Z,100046.34
2023-01-15T02:03:08.068Z,100043.75
2023-01-15T02:05:14.852Z,100058.00
2023-01-15T02:07:17.529Z,100047.31
2023-01-15T02:09:19.719Z,100042.16
2023-01-15T02:11:24.646Z,100048.25
2023-01-15T02:13:35.800Z,100051.94
2023-01-15T02:15:48.317Z,100046.59
2023-01-15T02:18:01.956Z,100045.66
2023-01-15T02:20:40.619Z,100051.06
2023-01-15T02:22:54.705Z,100044.78
2023-01-15T02:25:16.935Z,100046.66
2023-01-15T02:27:24.871Z,100041.41
2023-01-15T02:29:55.878Z,100048.63
2023-01-15T02:32:02.475Z,100049.56
2023-01-15T02:34:13.733Z,100054.78
2023-01-15T02:36:22.009Z,100059.25
2023-01-15T02:38:28.775Z,100056.50
2023-01-15T02:40:58.628Z,100057.59
2023-01-15T02:43:02.170Z,100068.16
2023-01-15T02:45:07.899Z,100062.97
2023-01-15T02:47:12.133Z,100062.06
2023-01-15T02:49:17.926Z,100068.38
2023-01-15T02:51:26.125Z,100063.88
2023-01-15T02:53:31.585Z,100062.94
2023-01-15T02:55:41.817Z,100068.16
2023-01-15T02:57:47.317Z,100067.22
2023-01-15T02:59:54.048Z,100067.13
2023-01-15T03:02:02.920Z,100067.22
2023-01-15T03:04:17.708Z,100058.47
2023-01-15T03:06:32.078Z,100061.09
2023-01-15T03:08:36.001Z,100059.31
2023-01-15T03:10:57.182Z,100055.84
2023-01-15T03:13:03.473Z,100053.97
2023-01-15T03:15:40.838Z,100052.22
2023-01-15T03:17:56.879Z,100060.28
2023-01-15T03:20:10.105Z,100053.22
2023-01-15T03:22:32.626Z,100056.94
2023-01-15T03:24:40.689Z,100053.28
2023-01-15T03:26:43.978Z,100053.25
2023-01-15T03:28:48.680Z,100048.66
2023-01-15T03:30:50.766Z,100048.66
2023-01-15T03:32:54.920Z,100041.53
2023-01-15T03:34:57.950Z,100045.09
2023-01-15T03:36:59.882Z,100029.03
2023-01-15T03:39:04.636Z,100037.13
2023-01-15T03:41:39.668Z,100032.72
2023-01-15T03:43:48.448Z,100040.75
2023-01-15T03:45:57.106Z,100041.63
2023-01-15T03:48:20.416Z,100033.59
2023-01-15T03:50:43.055Z,100035.31
2023-01-15T03:52:58.500Z,100022.84
2023-01-15T03:55:22.148Z,100025.56
2023-01-15T03:57:47.702Z,100030.97
2023-01-15T03:59:54.636Z,100024.78
2023-01-15T04:01:57.945Z,100026.50
2023-01-15T04:04:03.146Z,100030.19
2023-01-15T04:06:06.857Z,100026.56
2023-01-15T04:08:11.981Z,100020.34
2023-01-15T04:10:14.015Z,100015.00
2023-01-15T04:12:16.549Z,100028.53
2023-01-15T04:14:22.291Z,100021.31
2023-01-15T04:16:31.072Z,100025.78
2023-01-15T04:18:33.853Z,100021.38
2023-01-15T04:20:36.236Z,100016.88
2023-01-15T04:22:38.582Z,100019.56
2023-01-15T04:24:40.547Z,100012.31
2023-01-15T04:26:42.556Z,100015.94
2023-01-15T04:28:44.419Z,100021.28
2023-01-15T04:30:47.553Z,100014.22
2023-01-15T04:32:50.232Z,100016.09
2023-01-15T04:34:52.139Z,100012.47
2023-01-15T04:36:55.047Z,100014.22
2023-01-15T04:38:59.416Z,100016.09
2023-01-15T04:41:20.954Z,100006.22
2023-01-15T04:43:41.260Z,100002.72
2023-01-15T04:45:46.634Z,100007.16
2023-01-15T04:47:48.450Z,100012.41
2023-01-15T04:49:50.405Z,100009.00
2023-01-15T04:51:52.420Z,100009.00
2023-01-15T04:53:54.501Z,100012.50
2023-01-15T04:56:05.093Z,100003.66
2023-01-15T04:58:07.741Z,100012.47
2023-01-15T05:00:10.255Z,100014.22
2023-01-15T05:02:15.046Z,100003.44
2023-01-15T05:04:17.633Z,100002.81
2023-01-15T05:06:19.860Z,100007.28
2023-01-15T05:08:21.875Z,100008.22
2023-01-15T05:10:23.831Z,100015.31
2023-01-15T05:12:26.552Z,100000.13
2023-01-15T05:14:28.637Z,100008.13
2023-01-15T05:16:31.994Z,100009.00
2023-01-15T05:18:33.993Z,100004.53
2023-01-15T05:20:38.821Z,100008.00
2023-01-15T05:22:40.747Z,100011.59
2023-01-15T05:24:43.027Z,100009.75
2023-01-15T05:26:45.516Z,100013.34
2023-01-15T05:28:48.536Z,100004.47
2023-01-15T05:30:50.442Z,100004.53
2023-01-15T05:32:52.324Z,100005.38
2023-01-15T05:34:54.480Z,99997.38
2023-01-15T05:36:56.639Z,99996.59
2023-01-15T05:39:02.384Z,99998.53
2023-01-15T05:41:28.523Z,99999.69
2023-01-15T05:43:30.456Z,100003.38
2023-01-15T05:45:36.269Z,100004.25
2023-01-15T05:47:38.144Z,100002.44
2023-01-15T05:49:39.951Z,100001.63
2023-01-15T05:51:42.642Z,100002.78
2023-01-15T05:53:44.669Z,99997.34
2023-01-15T05:55:46.850Z,99994.94
2023-01-15T05:57:49.341Z,99989.66
2023-01-15T05:59:53.419Z,99996.84
2023-01-15T06:01:56.013Z,99995.06
2023-01-15T06:04:00.343Z,99999.47
2023-01-15T06:06:02.900Z,99997.78
2023-01-15T06:08:05.008Z,99999.53
2023-01-15T06:10:07.704Z,99995.25
2023-01-15T06:12:09.581Z,99988.97
2023-01-15T06:14:12.816Z,99983.81
2023-01-15T06:16:14.789Z,99983.88
2023-01-15T06:18:17.029Z,99976.72
2023-01-15T06:20:18.955Z,99979.28
2023-01-15T06:22:20.802Z,99975.97
2023-01-15T06:24:23.185Z,99977.75
2023-01-15T06:26:25.157Z,99980.34
2023-01-15T06:28:27.270Z,99974.19
2023-01-15T06:30:29.210Z,99971.41
2023-01-15T06:32:31.087Z,99968.91
2023-01-15T06:34:33.097Z,99970.59
2023-01-15T06:36:35.281Z,99970.59
2023-01-15T06:38:38.007Z,99966.25
2023-01-15T06:40:40.444Z,99965.38
2023-01-15T06:43:01.114Z,99963.84
2023-01-15T06:45:21.690Z,99960.44
2023-01-15T06:47:24.833Z,99961.19
2023-01-15T06:49:26.880Z,99955.84
2023-01-15T06:51:31.051Z,99956.72
2023-01-15T06:53:33.113Z,99947.00
2023-01-15T06:55:35.183Z,99939.00
2023-01-15T06:57:40.048Z,99942.72
2023-01-15T06:59:41.910Z,99938.19
2023-01-15T07:01:43.731Z,99933.69
2023-01-15T07:03:45.701Z,99940.13
2023-01-15T07:05:47.999Z,99937.78
2023-01-15T07:07:49.837Z,99935.91
2023-01-15T07:09:51.798Z,99938.63
2023-01-15T07:11:53.658Z,99933.28
2023-01-15T07:14:05.956Z,99936.78
2023-01-15T07:16:27.068Z,99929.00
2023-01-15T07:18:30.894Z,99936.94
2023-01-15T07:20:32.947Z,99932.47
2023-01-15T07:22:34.782Z,99919.09
2023-01-15T07:24:36.673Z,99927.00
2023-01-15T07:26:39.753Z,99920.66
2023-01-15T07:28:41.938Z,99926.81
2023-01-15T07:30:43.881Z,99926.00
2023-01-15T07:32:45.773Z,99922.47
2023-01-15T07:34:47.621Z,99923.94
2023-01-15T07:36:49.536Z,99916.56
2023-01-15T07:38:51.582Z,99911.22
2023-01-15T07:41:15.182Z,99907.56
2023-01-15T07:43:35.735Z,99908.03
2023-01-15T07:46:05.736Z,99906.97
2023-01-15T07:48:29.324Z,99902.94
2023-01-15T07:50:31.208Z,99901.03
2023-01-15T07:52:33.212Z,99896.56
2023-01-15T07:54:35.106Z,99897.59
2023-01-15T07:56:36.971Z,99898.44
2023-01-15T07:58:39.242Z,99897.47
2023-01-15T08:00:41.982Z,99899.34
2023-01-15T08:02:46.064Z,99895.31
2023-01-15T08:04:48.132Z,99888.75
2023-01-15T08:06:50.145Z,99887.47
2023-01-15T08:08:52.152Z,99889.00
2023-01-15T08:11:23.362Z,99892.63
2023-01-15T08:13:43.951Z,99887.19
2023-01-15T08:15:46.695Z,99882.44
2023-01-15T08:17:50.459Z,99883.16
2023-01-15T08:19:52.372Z,99883.88
2023-01-15T08:21:54.475Z,99880.97
2023-01-15T08:23:56.412Z,99880.66
2023-01-15T08:26:01.476Z,99876.00
2023-01-15T08:28:03.814Z,99872.28
2023-01-15T08:30:07.778Z,99879.19
2023-01-15T08:32:09.914Z,99879.81
2023-01-15T08:34:12.189Z,99882.56
2023-01-15T08:36:16.029Z,99873.69
2023-01-15T08:38:17.990Z,99883.25
2023-01-15T08:40:20.115Z,99868.94
2023-01-15T08:42:22.059Z,99880.75
2023-01-15T08:44:24.913Z,99883.09
2023-01-15T08:46:27.017Z,99882.06
2023-01-15T08:48:32.038Z,99870.16
2023-01-15T08:50:33.944Z,99877.91
2023-01-15T08:52:36.377Z,99872.44
2023-01-15T08:54:38.455Z,99870.53
2023-01-15T08:56:40.488Z,99867.66
2023-01-15T08:58:43.131Z,99863.91
2023-01-15T09:00:45.089Z,99863.56
2023-01-15T09:02:49.276Z,99873.19
2023-01-15T09:04:52.940Z,99870.41
2023-01-15T09:06:55.008Z,99863.22
2023-01-15T09:08:57.175Z,99866.38
2023-01-15T09:11:01.568Z,99863.56
2023-01-15T09:13:04.578Z,99853.41
2023-01-15T09:15:07.057Z,99855.09
2023-01-15T09:17:11.883Z,99847.94
2023-01-15T09:19:13.732Z,99843.41
2023-01-15T09:21:15.854Z,99852.09
2023-01-15T09:23:17.929Z,99841.16
2023-01-15T09:25:20.358Z,99848.91
2023-01-15T09:27:22.298Z,99834.44
2023-01-15T09:29:24.097Z,99828.16
2023-01-15T09:31:29.081Z,99825.47
2023-01-15T09:33:31.243Z,99818.06
2023-01-15T09:35:33.221Z,99816.06
2023-01-15T09:37:35.366Z,99826.72
2023-01-15T09:39:40.899Z,99814.22
2023-01-15T09:42:10.321Z,99806.09
2023-01-15T09:44:43.585Z,99805.75
2023-01-15T09:47:07.043Z,99800.41
2023-01-15T09:49:51.813Z,99794.06
2023-01-15T09:52:14.362Z,99798.16
2023-01-15T09:54:19.381Z,99789.84
2023-01-15T09:56:25.636Z,99776.16
2023-01-15T09:58:37.224Z,99788.63
2023-01-15T10:00:43.869Z,99777.81
2023-01-15T10:02:53.228Z,99773.22
2023-01-15T10:05:00.325Z,99777.63
2023-01-15T10:07:08.623Z,99771.19
2023-01-15T10:09:20.590Z,99771.53
2023-01-15T10:11:54.093Z,99772.25
2023-01-15T10:14:26.492Z,99755.97
2023-01-15T10:16:33.865Z,99755.69
2023-01-15T10:18:36.076Z,99763.59
2023-01-15T10:21:08.454Z,99754.75
2023-01-15T10:23:13.573Z,99761.84
2023-01-15T10:25:17.753Z,99759.13
2023-01-15T10:27:23.174Z,99751.78
2023-01-15T10:29:50.439Z,99753.69
2023-01-15T10:31:55.130Z,99748.13
2023-01-15T10:34:43.954Z,99730.38
2023-01-15T10:37:08.523Z,99729.22
2023-01-15T10:39:58.594Z,99722.13
2023-01-15T10:42:14.919Z,99718.47
2023-01-15T10:44:27.248Z,99713.94
2023-01-15T10:46:33.882Z,99715.69
2023-01-15T10:48:43.016Z,99706.88
2023-01-15T10:50:46.290Z,99700.38
2023-01-15T10:53:13.416Z,99706.00
2023-01-15T10:55:29.551Z,99704.06
2023-01-15T10:57:40.322Z,99691.38
2023-01-15T10:59:56.205Z,99689.50
2023-01-15T11:02:00.288Z,99675.78
2023-01-15T11:04:02.524Z,99680.47
2023-01-15T11:06:06.801Z,99659.78
2023-01-15T11:09:08.769Z,99665.19
2023-01-15T11:10:43.894Z,99659.47
2023-01-15T11:13:09.412Z,99656.63
2023-01-15T11:15:39.844Z,99652.09
2023-01-15T11:18:05.583Z,99648.28
2023-01-15T11:20:28.163Z,99640.59
2023-01-15T11:22:31.075Z,99631.94
2023-01-15T11:24:33.004Z,99621.28
2023-01-15T11:26:35.207Z,99621.34
2023-01-15T11:28:40.915Z,99623.78
2023-01-15T11:30:45.412Z,99614.81
2023-01-15T11:32:56.958Z,99614.72
2023-01-15T11:35:09.265Z,99615.66
2023-01-15T11:37:11.670Z,99618.78
2023-01-15T11:39:24.643Z,99615.22
2023-01-15T11:41:46.382Z,99613.53
2023-01-15T11:44:17.334Z,99601.78
2023-01-15T11:46:46.828Z,99599.22
2023-01-15T11:49:07.458Z,99593.72
2023-01-15T11:51:12.485Z,99589.34
2023-01-15T11:53:23.030Z,99587.66
2023-01-15T11:55:27.186Z,99598.97
2023-01-15T11:57:32.835Z,99585.59
2023-01-15T11:59:37.103Z,99579.81
2023-01-15T12:01:49.891Z,99577.94
2023-01-15T12:03:53.257Z,99571.91
2023-01-15T12:06:05.736Z,99575.00
2023-01-15T12:08:33.947Z,99570.19
2023-01-15T12:11:17.494Z,99561.25
2023-01-15T12:13:52.581Z,99555.91
2023-01-15T12:16:36.218Z,99556.69
2023-01-15T12:19:22.826Z,99547.78
2023-01-15T12:21:33.631Z,99550.03
2023-01-15T12:23:44.759Z,99549.03
2023-01-15T12:26:05.577Z,99541.69
2023-01-15T12:28:16.758Z,99538.38
2023-01-15T12:30:56.271Z,99528.50
2023-01-15T12:33:26.474Z,99527.75
2023-01-15T12:36:00.352Z,99518.59
2023-01-15T12:38:20.460Z,99522.16
2023-01-15T12:40:29.185Z,99521.28
2023-01-15T12:42:51.831Z,99518.41
2023-01-15T12:45:06.170Z,99509.66
2023-01-15T12:47:16.447Z,99511.63
2023-01-15T12:49:37.221Z,99515.41
2023-01-15T12:51:52.492Z,99507.97
2023-01-15T12:54:11.430Z,99502.47
2023-01-15T12:56:13.307Z,99507.78
2023-01-15T12:58:31.130Z,99506.16
2023-01-15T13:00:39.401Z,99496.41
2023-01-15T13:02:57.389Z,99482.81
2023-01-15T13:05:19.434Z,99484.28
2023-01-15T13:07:36.145Z,99477.66
2023-01-15T13:10:01.716Z,99480.13
2023-01-15T13:12:04.057Z,99470.97
2023-01-15T13:14:16.656Z,99472.13
2023-01-15T13:16:44.367Z,99463.28
2023-01-15T13:19:16.654Z,99467.75
2023-01-15T13:21:20.535Z,99459.50
2023-01-15T13:23:54.845Z,99461.38
2023-01-15T13:26:07.093Z,99467.34
2023-01-15T13:28:30.014Z,99465.59
2023-01-15T13:30:52.477Z,99463.88
2023-01-15T13:33:04.953Z,99460.94
2023-01-15T13:35:28.312Z,99458.72
2023-01-15T13:37:40.668Z,99463.19
2023-01-15T13:39:45.344Z,99462.97
2023-01-15T13:42:12.376Z,99462.97
2023-01-15T13:44:23.140Z,99463.88
2023-01-15T13:46:25.119Z,99461.84
2023-01-15T13:48:35.202Z,99465.59
2023-01-15T13:50:52.316Z,99448.44
2023-01-15T13:53:12.976Z,99449.66
2023-01-15T13:55:37.520Z,99446.09
2023-01-15T13:57:41.583Z,99440.50
2023-01-15T13:59:44.824Z,99435.28
2023-01-15T14:01:47.106Z,99434.38
2023-01-15T14:04:07.174Z,99434.59
2023-01-15T14:06:10.011Z,99422.81
2023-01-15T14:08:17.170Z,99413.81
2023-01-15T14:10:22.299Z,99408.47
2023-01-15T14:12:48.857Z,99422.16
2023-01-15T14:15:23.928Z,99421.41
2023-01-15T14:17:44.496Z,99419.53
2023-01-15T14:20:04.793Z,99416.97
2023-01-15T14:22:31.430Z,99417.91
2023-01-15T14:25:00.800Z,99418.03
2023-01-15T14:27:23.976Z,99424.22
2023-01-15T14:30:04.550Z,99423.59
2023-01-15T14:32:17.225Z,99417.44
2023-01-15T14:34:28.525Z,99414.81
2023-01-15T14:36:38.375Z,99409.56
2023-01-15T14:38:50.434Z,99404.44
2023-01-15T14:41:00.155Z,99402.56
2023-01-15T14:43:10.322Z,99401.97
2023-01-15T14:45:12.181Z,99393.91
2023-01-15T14:47:29.443Z,99388.97
2023-01-15T14:49:42.777Z,99381.66
2023-01-15T14:51:50.273Z,99375.75
2023-01-15T14:53:56.097Z,99369.56
2023-01-15T14:56:20.179Z,99370.06
2023-01-15T14:58:31.192Z,99366.56
2023-01-15T15:00:37.963Z,99372.03
2023-01-15T15:02:44.467Z,99370.53
2023-01-15T15:04:54.151Z,99372.34
2023-01-15T15:06:55.894Z,99373.22
2023-01-15T15:09:04.940Z,99378.03
2023-01-15T15:11:36.870Z,99377.28
2023-01-15T15:13:46.855Z,99376.59
2023-01-15T15:16:07.666Z,99376.72
2023-01-15T15:18:12.536Z,99372.22
2023-01-15T15:20:19.288Z,99371.59
2023-01-15T15:22:25.009Z,99372.59
2023-01-15T15:24:31.453Z,99372.97
2023-01-15T15:26:35.866Z,99373.84
2023-01-15T15:28:37.825Z,99374.97
2023-01-15T15:30:46.188Z,99368.16
2023-01-15T15:32:48.228Z,99362.91
2023-01-15T15:34:53.039Z,99367.56
2023-01-15T15:36:58.567Z,99373.09
2023-01-15T15:39:19.375Z,99371.53
2023-01-15T15:41:44.892Z,99364.53
2023-01-15T15:44:12.741Z,99371.06
2023-01-15T15:46:52.006Z,99366.00
2023-01-15T15:48:58.045Z,99363.25
2023-01-15T15:51:00.292Z,99355.34
2023-01-15T15:53:06.979Z,99369.78
2023-01-15T15:55:16.273Z,99371.88
2023-01-15T15:57:20.038Z,99368.25
2023-01-15T15:59:27.829Z,99372.09
2023-01-15T16:01:29.921Z,99372.88
2023-01-15T16:03:33.289Z,99369.50
2023-01-15T16:05:35.965Z,99371.47
2023-01-15T16:07:37.946Z,99375.19
2023-01-15T16:09:42.646Z,99371.69
2023-01-15T16:11:44.741Z,99369.25
2023-01-15T16:13:49.836Z,99383.75
2023-01-15T16:15:56.205Z,99377.56
2023-01-15T16:18:03.550Z,99384.75
2023-01-15T16:20:12.725Z,99386.59
2023-01-15T16:22:18.041Z,99376.03
2023-01-15T16:24:26.317Z,99371.72
2023-01-15T16:26:38.966Z,99377.34
2023-01-15T16:28:49.331Z,99376.56
2023-01-15T16:31:05.425Z,99379.47
2023-01-15T16:33:08.239Z,99380.34
2023-01-15T16:35:21.082Z,99384.16
2023-01-15T16:37:30.809Z,99380.69
2023-01-15T16:39:32.701Z,99379.75
2023-01-15T16:41:42.423Z,99380.94
2023-01-15T16:44:05.954Z,99367.63
2023-01-15T16:46:07.905Z,99371.03
2023-01-15T16:48:24.565Z,99366.72
2023-01-15T16:50:29.904Z,99366.06
2023-01-15T16:52:51.281Z,99357.44
2023-01-15T16:54:53.426Z,99352.75
2023-01-15T16:56:57.145Z,99353.06
2023-01-15T16:58:59.080Z,99351.19
2023-01-15T17:01:02.491Z,99351.81
2023-01-15T17:03:10.782Z,99353.84
2023-01-15T17:05:23.830Z,99353.09
2023-01-15T17:07:35.583Z,99351.25
2023-01-15T17:09:38.169Z,99354.88
2023-01-15T17:11:40.978Z,99353.34
2023-01-15T17:13:45.284Z,99343.56
2023-01-15T17:15:47.699Z,99346.25
2023-01-15T17:17:51.394Z,99336.44
2023-01-15T17:19:56.395Z,99330.41
2023-01-15T17:21:58.461Z,99332.25
2023-01-15T17:24:00.368Z,99333.25
2023-01-15T17:26:04.430Z,99320.97
2023-01-15T17:28:08.289Z,99318.41
2023-01-15T17:30:12.758Z,99317.75
2023-01-15T17:32:17.825Z,99315.25
2023-01-15T17:34:23.553Z,99305.41
2023-01-15T17:36:26.399Z,99301.13
2023-01-15T17:38:28.283Z,99304.88
2023-01-15T17:40:30.771Z,99302.25
2023-01-15T17:42:32.785Z,99300.31
2023-01-15T17:44:34.722Z,99296.91
2023-01-15T17:46:37.165Z,99296.72
2023-01-15T17:48:40.175Z,99294.94
2023-01-15T17:50:44.277Z,99290.19
2023-01-15T17:52:46.914Z,99294.47
2023-01-15T17:55:09.869Z,99293.69
2023-01-15T17:57:30.815Z,99295.41
2023-01-15T17:59:51.496Z,99300.88
2023-01-15T18:02:12.588Z,99303.56
2023-01-15T18:04:50.715Z,99298.34
2023-01-15T18:06:53.903Z,99300.22
2023-01-15T18:08:58.803Z,99304.63
2023-01-15T18:11:00.940Z,99308.06
2023-01-15T18:13:07.761Z,99302.69
2023-01-15T18:15:10.260Z,99303.66
2023-01-15T18:17:12.108Z,99305.50
2023-01-15T18:19:14.336Z,99307.41
2023-01-15T18:21:16.772Z,99304.06
2023-01-15T18:23:18.824Z,99305.09
2023-01-15T18:25:20.783Z,99304.97
2023-01-15T18:27:23.240Z,99310.50
2023-01-15T18:29:25.380Z,99308.84
2023-01-15T18:31:27.632Z,99303.38
2023-01-15T18:33:30.317Z,99305.16
2023-01-15T18:35:32.611Z,99303.47
2023-01-15T18:37:34.618Z,99305.34
2023-01-15T18:39:37.417Z,99308.75
2023-01-15T18:41:40.520Z,99301.50
2023-01-15T18:44:00.684Z,99300.53
2023-01-15T18:46:25.164Z,99291.50
2023-01-15T18:48:27.729Z,99296.09
2023-01-15T18:50:32.044Z,99294.06
2023-01-15T18:52:50.240Z,99297.09
2023-01-15T18:54:52.306Z,99287.25
2023-01-15T18:56:54.174Z,99288.41
2023-01-15T18:58:56.857Z,99287.50
2023-01-15T19:00:59.159Z,99281.38
2023-01-15T19:03:01.031Z,99277.97
2023-01-15T19:05:03.086Z,99266.00
2023-01-15T19:07:04.936Z,99274.03
2023-01-15T19:09:08.617Z,99271.50
2023-01-15T19:11:13.707Z,99272.34
2023-01-15T19:13:18.195Z,99275.81
2023-01-15T19:15:39.485Z,99281.25
2023-01-15T19:18:02.889Z,99270.47
2023-01-15T19:20:05.970Z,99272.56
2023-01-15T19:22:28.079Z,99263.72
2023-01-15T19:24:30.484Z,99270.88
2023-01-15T19:26:32.395Z,99274.53
2023-01-15T19:28:34.310Z,99262.97
2023-01-15T19:30:38.860Z,99268.13
2023-01-15T19:32:40.934Z,99260.00
2023-01-15T19:34:42.749Z,99263.75
2023-01-15T19:36:44.961Z,99262.00
2023-01-15T19:38:46.763Z,99259.56
2023-01-15T19:40:50.288Z,99261.63
2023-01-15T19:43:12.219Z,99257.25
2023-01-15T19:45:33.496Z,99254.53
2023-01-15T19:47:57.156Z,99251.75
2023-01-15T19:50:17.708Z,99254.53
2023-01-15T19:52:34.897Z,99246.44
2023-01-15T19:54:55.536Z,99250.22
2023-01-15T19:56:57.501Z,99238.66
2023-01-15T19:58:59.385Z,99240.38
2023-01-15T20:01:02.104Z,99238.63
2023-01-15T20:03:05.348Z,99233.44
2023-01-15T20:05:08.976Z,99237.06
2023-01-15T20:07:11.620Z,99240.66
2023-01-15T20:09:13.702Z,99242.44
2023-01-15T20:11:15.969Z,99240.56
2023-01-15T20:13:41.487Z,99241.34
2023-01-15T20:15:45.872Z,99237.78
2023-01-15T20:17:47.903Z,99236.81
2023-01-15T20:19:49.967Z,99233.16
2023-01-15T20:21:51.714Z,99234.69
2023-01-15T20:23:53.548Z,99224.00
2023-01-15T20:26:01.586Z,99216.91
2023-01-15T20:28:03.445Z,99224.69
2023-01-15T20:30:09.299Z,99214.97
2023-01-15T20:32:11.239Z,99221.84
2023-01-15T20:34:13.061Z,99222.75
2023-01-15T20:36:15.436Z,99219.91
2023-01-15T20:38:19.095Z,99211.88
2023-01-15T20:40:23.864Z,99217.16
2023-01-15T20:42:46.350Z,99219.84
2023-01-15T20:44:55.348Z,99210.38
2023-01-15T20:46:57.449Z,99218.03
2023-01-15T20:49:17.673Z,99218.13
2023-01-15T20:51:20.114Z,99223.41
2023-01-15T20:53:21.945Z,99219.91
2023-01-15T20:55:24.822Z,99212.97
2023-01-15T20:57:26.664Z,99216.31
2023-01-15T20:59:28.870Z,99211.72
2023-01-15T21:01:30.904Z,99211.84
2023-01-15T21:03:32.835Z,99208.22
2023-01-15T21:05:34.767Z,99210.59
2023-01-15T21:07:37.925Z,99222.28
2023-01-15T21:09:39.827Z,99208.84
2023-01-15T21:11:42.483Z,99206.22
2023-01-15T21:13:46.031Z,99204.47
2023-01-15T21:15:58.207Z,99208.94
2023-01-15T21:18:00.360Z,99207.22
2023-01-15T21:20:02.525Z,99193.75
2023-01-15T21:22:04.667Z,99190.97
2023-01-15T21:24:06.863Z,99202.53
2023-01-15T21:26:08.970Z,99192.94
2023-01-15T21:28:11.812Z,99189.28
2023-01-15T21:30:15.828Z,99194.56
2023-01-15T21:32:17.765Z,99193.53
2023-01-15T21:34:20.556Z,99193.34
2023-01-15T21:36:23.075Z,99191.72
2023-01-15T21:38:25.246Z,99185.25
2023-01-15T21:40:27.256Z,99194.31
2023-01-15T21:42:55.628Z,99182.72
2023-01-15T21:44:57.543Z,99189.94
2023-01-15T21:47:02.061Z,99196.16
2023-01-15T21:49:05.831Z,99200.44
2023-01-15T21:51:07.839Z,99195.97
2023-01-15T21:53:10.120Z,99196.06
2023-01-15T21:55:13.314Z,99193.53
2023-01-15T21:57:16.007Z,99196.94
2023-01-15T21:59:20.114Z,99204.09
2023-01-15T22:01:23.364Z,99184.28
2023-01-15T22:03:25.548Z,99203.97
2023-01-15T22:05:27.529Z,99185.94
2023-01-15T22:07:29.899Z,99193.88
2023-01-15T22:09:31.755Z,99187.69
2023-01-15T22:11:45.837Z,99179.56
2023-01-15T22:13:51.209Z,99185.69
2023-01-15T22:15:54.575Z,99178.41
2023-01-15T22:17:57.752Z,99177.41
2023-01-15T22:20:00.409Z,99178.22
2023-01-15T22:22:13.111Z,99180.75
2023-01-15T22:24:15.437Z,99182.56
2023-01-15T22:26:22.163Z,99180.63
2023-01-15T22:28:24.489Z,99182.16
2023-01-15T22:30:26.440Z,99183.00
2023-01-15T22:32:28.579Z,99175.94
2023-01-15T22:34:31.283Z,99178.41
2023-01-15T22:36:33.515Z,99175.84
2023-01-15T22:38:35.521Z,99181.16
2023-01-15T22:40:37.569Z,99172.19
2023-01-15T22:42:42.096Z,99156.97
2023-01-15T22:44:45.214Z,99150.75
2023-01-15T22:46:50.474Z,99157.84
2023-01-15T22:48:52.812Z,99149.97
2023-01-15T22:50:54.764Z,99156.28
2023-01-15T22:52:56.630Z,99153.69
2023-01-15T22:54:58.513Z,99142.91
2023-01-15T22:57:00.920Z,99130.53
2023-01-15T22:59:03.004Z,99131.56
2023-01-15T23:01:05.683Z,99129.09
2023-01-15T23:03:08.169Z,99123.84
2023-01-15T23:05:11.867Z,99130.91
2023-01-15T23:07:14.093Z,99124.78
2023-01-15T23:09:16.081Z,99134.50
2023-01-15T23:11:18.176Z,99122.00
2023-01-15T23:13:21.191Z,99125.53
2023-01-15T23:15:23.213Z,99131.69
2023-01-15T23:17:25.886Z,99121.13
2023-01-15T23:19:28.339Z,99117.31
2023-01-15T23:21:30.715Z,99106.41
2023-01-15T23:23:33.889Z,99102.84
2023-01-15T23:25:35.985Z,99101.88
2023-01-15T23:27:38.289Z,99095.53
2023-01-15T23:29:40.956Z,99097.16
2023-01-15T23:31:42.982Z,99096.72
2023-01-15T23:33:45.433Z,99103.59
2023-01-15T23:35:47.601Z,99103.53
2023-01-15T23:37:49.857Z,99099.66
2023-01-15T23:39:52.205Z,99092.38
2023-01-15T23:42:12.560Z,99099.19
2023-01-15T23:44:38.919Z,99095.59
2023-01-15T23:46:41.259Z,99104.22
2023-01-15T23:48:43.459Z,99089.78
2023-01-15T23:50:45.421Z,99094.88
2023-01-15T23:52:47.424Z,99098.31
2023-01-15T23:54:49.412Z,99091.88
2023-01-15T23:56:51.738Z,99088.13
2023-01-15T23:58:54.006Z,99095.13
